createdAt,value
2023-04-08T00:00:05.454Z,12.30
2023-04-08T00:01:05.464Z,12.44
2023-04-08T00:02:05.537Z,12.50
2023-04-08T00:03:05.559Z,12.10
2023-04-08T00:04:05.765Z,12.19
2023-04-08T00:05:05.692Z,12.39
2023-04-08T00:06:05.562Z,12.41
2023-04-08T00:07:05.615Z,12.51
2023-04-08T00:08:05.616Z,12.62
2023-04-08T00:09:05.617Z,12.65
2023-04-08T00:10:05.672Z,12.24
2023-04-08T00:11:05.705Z,12.34
2023-04-08T00:12:05.760Z,12.26
2023-04-08T00:13:05.789Z,12.27
2023-04-08T00:14:05.803Z,12.43
2023-04-08T00:15:05.822Z,12.52
2023-04-08T00:16:05.873Z,12.61
2023-04-08T00:17:05.934Z,12.57
2023-04-08T00:18:05.909Z,12.62
2023-04-08T00:19:05.885Z,12.67
2023-04-08T00:20:05.911Z,12.67
2023-04-08T00:21:05.892Z,12.74
2023-04-08T00:22:05.861Z,12.79
2023-04-08T00:23:05.981Z,12.86
2023-04-08T00:24:05.870Z,12.89
2023-04-08T00:25:05.936Z,12.89
2023-04-08T00:26:05.940Z,12.89
2023-04-08T00:27:05.889Z,13.00
2023-04-08T00:28:05.904Z,12.98
2023-04-08T00:29:05.898Z,13.00
2023-04-08T00:30:14.428Z,12.89
2023-04-08T00:31:06.103Z,13.02
2023-04-08T00:32:06.048Z,13.00
2023-04-08T00:33:06.107Z,13.07
2023-04-08T00:34:06.059Z,13.06
2023-04-08T00:35:06.222Z,13.09
2023-04-08T00:36:06.223Z,13.05
2023-04-08T00:37:06.086Z,13.10
2023-04-08T00:38:06.172Z,13.05
2023-04-08T00:39:06.139Z,13.00
2023-04-08T00:40:06.224Z,13.06
2023-04-08T00:41:06.256Z,13.12
2023-04-08T00:42:06.273Z,13.20
2023-04-08T00:43:06.299Z,13.13
2023-04-08T00:44:06.344Z,13.17
2023-04-08T00:45:06.374Z,13.13
2023-04-08T00:46:06.377Z,13.19
2023-04-08T00:47:06.344Z,13.22
2023-04-08T00:48:06.411Z,13.16
2023-04-08T00:49:06.354Z,13.20
2023-04-08T00:50:06.440Z,13.23
2023-04-08T00:51:06.490Z,13.16
2023-04-08T00:52:06.490Z,13.16
2023-04-08T00:53:06.566Z,12.92
2023-04-08T00:54:06.652Z,13.02
2023-04-08T00:55:06.704Z,12.94
2023-04-08T00:56:06.786Z,13.00
2023-04-08T00:57:06.754Z,12.77
2023-04-08T00:58:06.858Z,12.79
2023-04-08T00:59:06.934Z,12.92
2023-04-08T01:00:06.942Z,12.99
2023-04-08T01:01:07.044Z,13.05
2023-04-08T01:02:07.146Z,13.10
2023-04-08T01:03:07.266Z,13.12
2023-04-08T01:04:07.064Z,13.19
2023-04-08T01:05:07.036Z,13.23
2023-04-08T01:06:07.098Z,13.26
2023-04-08T01:07:07.018Z,13.32
2023-04-08T01:08:07.104Z,13.33
2023-04-08T01:09:07.101Z,13.32
2023-04-08T01:10:07.094Z,13.17
2023-04-08T01:11:07.115Z,13.12
2023-04-08T01:12:07.073Z,13.10
2023-04-08T01:13:07.076Z,13.09
2023-04-08T01:14:07.137Z,13.10
2023-04-08T01:15:07.242Z,13.16
2023-04-08T01:16:07.335Z,13.20
2023-04-08T01:17:07.292Z,13.26
2023-04-08T01:18:07.414Z,13.30
2023-04-08T01:19:18.078Z,13.36
2023-04-08T01:20:07.486Z,13.34
2023-04-08T01:21:07.507Z,13.39
2023-04-08T01:22:07.417Z,13.37
2023-04-08T01:23:07.418Z,13.29
2023-04-08T01:24:07.372Z,13.26
2023-04-08T01:25:07.394Z,13.19
2023-04-08T01:26:07.408Z,13.22
2023-04-08T01:27:07.388Z,13.23
2023-04-08T01:28:07.395Z,13.30
2023-04-08T01:29:07.372Z,13.29
2023-04-08T01:30:07.368Z,13.29
2023-04-08T01:31:07.419Z,13.17
2023-04-08T01:32:07.351Z,13.09
2023-04-08T01:33:07.369Z,12.65
2023-04-08T01:34:07.357Z,12.69
2023-04-08T01:35:07.311Z,12.72
2023-04-08T01:36:07.411Z,12.41
2023-04-08T01:37:07.346Z,12.10
2023-04-08T01:38:07.430Z,12.13
2023-04-08T01:39:07.477Z,11.96
2023-04-08T01:40:07.537Z,12.23
2023-04-08T01:41:07.611Z,12.33
2023-04-08T01:42:07.613Z,12.36
2023-04-08T01:43:07.713Z,12.26
2023-04-08T01:44:07.775Z,11.92
2023-04-08T01:45:07.823Z,12.07
2023-04-08T01:46:07.896Z,12.07
2023-04-08T01:47:08.107Z,11.84
2023-04-08T01:48:07.948Z,12.00
2023-04-08T01:49:07.984Z,11.97
2023-04-08T01:50:08.039Z,12.13
2023-04-08T01:51:08.077Z,12.13
2023-04-08T01:52:08.503Z,11.93
2023-04-08T01:53:08.117Z,11.61
2023-04-08T01:54:08.130Z,11.61
2023-04-08T01:55:08.166Z,11.65
2023-04-08T01:56:08.275Z,11.33
2023-04-08T01:57:08.262Z,11.47
2023-04-08T01:58:08.316Z,11.53
2023-04-08T01:59:08.352Z,11.41
2023-04-08T02:00:08.425Z,11.16
2023-04-08T02:01:08.480Z,11.26
2023-04-08T02:02:08.596Z,11.47
2023-04-08T02:03:08.768Z,11.62
2023-04-08T02:04:08.837Z,11.51
2023-04-08T02:05:08.708Z,11.58
2023-04-08T02:06:08.785Z,11.67
2023-04-08T02:07:08.834Z,11.65
2023-04-08T02:08:08.854Z,11.55
2023-04-08T02:09:08.895Z,11.67
2023-04-08T02:10:08.987Z,11.53
2023-04-08T02:11:08.939Z,11.67
2023-04-08T02:12:08.957Z,11.82
2023-04-08T02:13:08.934Z,11.65
2023-04-08T02:14:08.933Z,11.88
2023-04-08T02:15:08.954Z,12.00
2023-04-08T02:16:09.051Z,12.07
2023-04-08T02:17:08.945Z,12.23
2023-04-08T02:18:09.061Z,12.34
2023-04-08T02:19:08.996Z,12.45
2023-04-08T02:20:09.045Z,12.55
2023-04-08T02:21:09.095Z,12.58
2023-04-08T02:22:09.168Z,12.58
2023-04-08T02:23:09.196Z,12.65
2023-04-08T02:24:09.256Z,12.68
2023-04-08T02:25:09.214Z,12.72
2023-04-08T02:26:09.258Z,12.72
2023-04-08T02:27:09.248Z,12.78
2023-04-08T02:28:09.216Z,12.81
2023-04-08T02:29:09.209Z,12.84
2023-04-08T02:30:09.228Z,12.85
2023-04-08T02:31:09.293Z,12.89
2023-04-08T02:32:09.248Z,12.89
2023-04-08T02:33:09.353Z,12.94
2023-04-08T02:34:09.398Z,12.85
2023-04-08T02:35:09.396Z,12.67
2023-04-08T02:36:09.474Z,12.69
2023-04-08T02:37:09.498Z,12.75
2023-04-08T02:38:09.494Z,12.78
2023-04-08T02:39:09.511Z,12.84
2023-04-08T02:40:09.538Z,12.86
2023-04-08T02:41:09.581Z,12.91
2023-04-08T02:42:11.802Z,12.94
2023-04-08T02:43:09.615Z,12.96
2023-04-08T02:44:09.678Z,12.96
2023-04-08T02:45:09.649Z,13.00
2023-04-08T02:46:09.708Z,13.03
2023-04-08T02:47:09.689Z,13.05
2023-04-08T02:48:09.702Z,13.02
2023-04-08T02:49:09.706Z,13.00
2023-04-08T02:50:09.714Z,12.85
2023-04-08T02:51:09.743Z,12.94
2023-04-08T02:52:09.790Z,12.65
2023-04-08T02:53:09.827Z,12.58
2023-04-08T02:54:09.875Z,12.62
2023-04-08T02:55:09.951Z,12.69
2023-04-08T02:56:09.968Z,12.74
2023-04-08T02:57:09.985Z,12.78
2023-04-08T02:58:10.067Z,12.82
2023-04-08T02:59:10.067Z,12.84
2023-04-08T03:00:10.123Z,12.86
2023-04-08T03:01:10.299Z,12.92
2023-04-08T03:02:10.341Z,12.65
2023-04-08T03:03:10.360Z,12.65
2023-04-08T03:04:10.285Z,12.72
2023-04-08T03:05:10.366Z,12.78
2023-04-08T03:06:10.504Z,12.81
2023-04-08T03:07:10.450Z,12.85
2023-04-08T03:08:10.541Z,12.77
2023-04-08T03:09:10.609Z,12.71
2023-04-08T03:10:10.640Z,12.69
2023-04-08T03:11:10.644Z,12.78
2023-04-08T03:12:10.647Z,12.81
2023-04-08T03:13:10.742Z,12.57
2023-04-08T03:14:10.775Z,12.64
2023-04-08T03:15:10.835Z,12.58
2023-04-08T03:16:10.937Z,12.62
2023-04-08T03:17:10.946Z,12.68
2023-04-08T03:18:10.949Z,12.72
2023-04-08T03:19:11.015Z,12.78
2023-04-08T03:20:11.053Z,12.75
2023-04-08T03:21:11.121Z,12.81
2023-04-08T03:22:11.133Z,12.82
2023-04-08T03:23:11.194Z,12.65
2023-04-08T03:24:11.247Z,12.74
2023-04-08T03:25:11.308Z,12.77
2023-04-08T03:26:11.422Z,12.81
2023-04-08T03:27:11.412Z,12.84
2023-04-08T03:28:11.482Z,12.84
2023-04-08T03:29:11.528Z,12.84
2023-04-08T03:30:11.600Z,12.86
2023-04-08T03:31:11.714Z,12.89
2023-04-08T03:32:11.877Z,12.86
2023-04-08T03:33:11.860Z,12.88
2023-04-08T03:34:11.892Z,12.89
2023-04-08T03:35:11.988Z,12.81
2023-04-08T03:36:12.001Z,12.81
2023-04-08T03:37:12.066Z,12.82
2023-04-08T03:38:12.058Z,12.69
2023-04-08T03:39:12.127Z,12.54
2023-04-08T03:40:12.149Z,12.41
2023-04-08T03:41:12.180Z,12.36
2023-04-08T03:42:12.216Z,12.23
2023-04-08T03:43:12.247Z,12.22
2023-04-08T03:44:12.287Z,12.33
2023-04-08T03:45:12.307Z,12.32
2023-04-08T03:46:12.379Z,12.43
2023-04-08T03:47:12.358Z,12.39
2023-04-08T03:48:12.397Z,12.40
2023-04-08T03:49:12.378Z,12.50
2023-04-08T03:50:12.398Z,12.57
2023-04-08T03:51:12.467Z,12.61
2023-04-08T03:52:12.411Z,12.67
2023-04-08T03:53:12.419Z,12.72
2023-04-08T03:54:12.445Z,12.77
2023-04-08T03:55:12.379Z,12.84
2023-04-08T03:56:12.484Z,12.82
2023-04-08T03:57:12.451Z,12.91
2023-04-08T03:58:12.494Z,12.78
2023-04-08T03:59:12.525Z,12.84
2023-04-08T04:00:12.572Z,12.89
2023-04-08T04:01:12.627Z,12.92
2023-04-08T04:02:12.678Z,12.91
2023-04-08T04:03:12.761Z,12.71
2023-04-08T04:04:12.817Z,12.69
2023-04-08T04:05:12.725Z,12.43
2023-04-08T04:06:12.743Z,12.64
2023-04-08T04:07:12.781Z,12.68
2023-04-08T04:08:12.785Z,12.72
2023-04-08T04:09:12.845Z,12.79
2023-04-08T04:10:12.874Z,12.78
2023-04-08T04:11:12.914Z,12.78
2023-04-08T04:12:12.900Z,12.78
2023-04-08T04:13:12.918Z,12.74
2023-04-08T04:14:12.968Z,12.78
2023-04-08T04:15:13.113Z,12.64
2023-04-08T04:16:13.078Z,12.74
2023-04-08T04:17:13.043Z,12.77
2023-04-08T04:18:13.141Z,12.79
2023-04-08T04:19:13.212Z,12.71
2023-04-08T04:20:13.162Z,12.79
2023-04-08T04:21:13.232Z,12.81
2023-04-08T04:22:13.282Z,12.84
2023-04-08T04:23:13.279Z,12.85
2023-04-08T04:24:13.360Z,12.86
2023-04-08T04:25:13.412Z,12.85
2023-04-08T04:26:13.465Z,12.78
2023-04-08T04:27:13.500Z,12.64
2023-04-08T04:28:13.496Z,12.64
2023-04-08T04:29:13.518Z,12.39
2023-04-08T04:30:13.542Z,12.29
2023-04-08T04:31:13.642Z,12.29
2023-04-08T04:32:13.634Z,12.37
2023-04-08T04:33:13.658Z,12.44
2023-04-08T04:34:13.721Z,12.51
2023-04-08T04:35:13.754Z,12.44
2023-04-08T04:36:13.767Z,12.39
2023-04-08T04:37:13.800Z,12.34
2023-04-08T04:38:13.874Z,12.10
2023-04-08T04:39:13.919Z,12.06
2023-04-08T04:40:13.964Z,11.75
2023-04-08T04:41:14.030Z,11.69
2023-04-08T04:42:14.083Z,11.69
2023-04-08T04:43:14.092Z,11.84
2023-04-08T04:44:14.152Z,11.62
2023-04-08T04:45:14.233Z,11.44
2023-04-08T04:46:14.312Z,11.40
2023-04-08T04:47:14.316Z,11.48
2023-04-08T04:48:14.384Z,11.72
2023-04-08T04:49:14.480Z,11.82
2023-04-08T04:50:14.453Z,11.95
2023-04-08T04:51:14.481Z,12.07
2023-04-08T04:52:14.477Z,12.17
2023-04-08T04:53:14.551Z,12.24
2023-04-08T04:54:14.599Z,12.03
2023-04-08T04:55:14.657Z,11.95
2023-04-08T04:56:14.744Z,12.03
2023-04-08T04:57:14.745Z,12.09
2023-04-08T04:58:14.754Z,12.15
2023-04-08T04:59:14.810Z,12.22
2023-04-08T05:00:14.837Z,12.23
2023-04-08T05:01:14.910Z,12.24
2023-04-08T05:02:14.941Z,12.33
2023-04-08T05:03:14.981Z,12.32
2023-04-08T05:04:14.876Z,12.37
2023-04-08T05:05:14.946Z,12.45
2023-04-08T05:06:14.935Z,12.52
2023-04-08T05:07:14.937Z,12.57
2023-04-08T05:08:15.053Z,12.60
2023-04-08T05:09:15.090Z,12.62
2023-04-08T05:10:15.180Z,12.48
2023-04-08T05:11:15.151Z,12.48
2023-04-08T05:12:15.189Z,12.45
2023-04-08T05:13:15.190Z,12.43
2023-04-08T05:14:15.168Z,12.45
2023-04-08T05:15:15.219Z,12.50
2023-04-08T05:16:15.228Z,12.34
2023-04-08T05:17:15.226Z,12.40
2023-04-08T05:18:15.238Z,12.50
2023-04-08T05:19:15.199Z,12.58
2023-04-08T05:20:17.500Z,12.64
2023-04-08T05:21:15.272Z,12.52
2023-04-08T05:22:15.274Z,12.47
2023-04-08T05:23:15.267Z,12.44
2023-04-08T05:24:15.300Z,12.10
2023-04-08T05:25:15.300Z,12.27
2023-04-08T05:26:16.563Z,12.36
2023-04-08T05:27:15.361Z,12.45
2023-04-08T05:28:15.432Z,12.44
2023-04-08T05:29:15.483Z,12.47
2023-04-08T05:30:15.542Z,12.58
2023-04-08T05:31:15.560Z,12.52
2023-04-08T05:32:15.498Z,12.55
2023-04-08T05:33:15.536Z,12.54
2023-04-08T05:34:15.581Z,12.57
2023-04-08T05:35:15.575Z,12.60
2023-04-08T05:36:15.574Z,12.60
2023-04-08T05:37:15.637Z,12.36
2023-04-08T05:38:15.695Z,12.33
2023-04-08T05:39:15.731Z,12.07
2023-04-08T05:40:15.777Z,11.97
2023-04-08T05:41:15.922Z,11.96
2023-04-08T05:42:15.901Z,12.05
2023-04-08T05:43:15.944Z,11.99
2023-04-08T05:44:15.934Z,12.10
2023-04-08T05:45:16.003Z,12.15
2023-04-08T05:46:16.101Z,12.19
2023-04-08T05:47:16.034Z,12.26
2023-04-08T05:48:16.063Z,12.32
2023-04-08T05:49:16.028Z,12.36
2023-04-08T05:50:16.031Z,12.44
2023-04-08T05:51:16.057Z,12.55
2023-04-08T05:52:16.293Z,12.62
2023-04-08T05:53:16.036Z,12.74
2023-04-08T05:54:15.964Z,12.81
2023-04-08T05:55:15.970Z,12.86
2023-04-08T05:56:15.994Z,12.91
2023-04-08T05:57:15.988Z,12.92
2023-04-08T05:58:16.055Z,12.95
2023-04-08T05:59:15.980Z,12.96
2023-04-08T06:00:15.962Z,13.00
2023-04-08T06:01:15.966Z,12.98
2023-04-08T06:02:16.006Z,12.99
2023-04-08T06:03:18.102Z,13.02
2023-04-08T06:04:16.016Z,13.03
2023-04-08T06:05:15.929Z,13.09
2023-04-08T06:06:15.991Z,13.12
2023-04-08T06:07:15.929Z,13.19
2023-04-08T06:08:15.901Z,13.24
2023-04-08T06:09:15.938Z,13.27
2023-04-08T06:10:15.906Z,12.88
2023-04-08T06:11:15.909Z,12.81
2023-04-08T06:12:15.877Z,12.95
2023-04-08T06:13:15.918Z,13.05
2023-04-08T06:14:15.885Z,13.07
2023-04-08T06:15:15.854Z,13.12
2023-04-08T06:16:16.846Z,13.20
2023-04-08T06:17:15.862Z,13.27
2023-04-08T06:18:15.854Z,13.33
2023-04-08T06:19:15.827Z,13.37
2023-04-08T06:20:15.826Z,13.33
2023-04-08T06:21:15.847Z,13.37
2023-04-08T06:22:15.793Z,13.47
2023-04-08T06:23:15.890Z,13.54
2023-04-08T06:24:15.780Z,13.58
2023-04-08T06:25:15.822Z,13.61
2023-04-08T06:26:15.862Z,13.67
2023-04-08T06:27:15.768Z,13.67
2023-04-08T06:28:15.780Z,13.41
2023-04-08T06:29:15.798Z,13.51
2023-04-08T06:30:15.803Z,13.57
2023-04-08T06:31:15.787Z,13.53
2023-04-08T06:32:15.754Z,13.50
2023-04-08T06:33:15.808Z,13.58
2023-04-08T06:34:15.906Z,13.65
2023-04-08T06:35:16.019Z,13.67
2023-04-08T06:36:16.040Z,13.51
2023-04-08T06:37:16.052Z,13.54
2023-04-08T06:38:16.072Z,13.55
2023-04-08T06:39:16.155Z,13.50
2023-04-08T06:40:16.160Z,13.69
2023-04-08T06:41:16.181Z,13.78
2023-04-08T06:42:16.178Z,13.72
2023-04-08T06:43:16.254Z,13.88
2023-04-08T06:44:16.258Z,13.92
2023-04-08T06:45:16.259Z,13.54
2023-04-08T06:46:16.361Z,13.65
2023-04-08T06:47:16.280Z,13.58
2023-04-08T06:48:16.308Z,13.54
2023-04-08T06:49:16.314Z,13.62
2023-04-08T06:50:16.324Z,13.77
2023-04-08T06:51:16.313Z,13.61
2023-04-08T06:52:16.336Z,13.50
2023-04-08T06:53:16.337Z,13.67
2023-04-08T06:54:16.368Z,13.78
2023-04-08T06:55:16.350Z,13.92
2023-04-08T06:56:16.391Z,13.98
2023-04-08T06:57:16.396Z,14.08
2023-04-08T06:58:16.446Z,14.13
2023-04-08T06:59:16.503Z,13.93
2023-04-08T07:00:16.570Z,14.03
2023-04-08T07:01:16.723Z,14.08
2023-04-08T07:02:16.686Z,14.12
2023-04-08T07:03:16.798Z,13.93
2023-04-08T07:04:16.826Z,13.74
2023-04-08T07:05:16.817Z,13.84
2023-04-08T07:06:16.874Z,13.89
2023-04-08T07:07:16.956Z,13.81
2023-04-08T07:08:16.971Z,13.67
2023-04-08T07:09:16.977Z,13.15
2023-04-08T07:10:17.292Z,12.94
2023-04-08T07:11:17.047Z,13.24
2023-04-08T07:12:17.044Z,13.10
2023-04-08T07:13:17.083Z,13.29
2023-04-08T07:14:17.049Z,13.50
2023-04-08T07:15:17.099Z,13.32
2023-04-08T07:16:17.132Z,13.46
2023-04-08T07:17:17.130Z,13.53
2023-04-08T07:18:17.128Z,13.65
2023-04-08T07:19:17.150Z,13.64
2023-04-08T07:20:17.168Z,13.75
2023-04-08T07:21:17.261Z,13.88
2023-04-08T07:22:17.272Z,13.90
2023-04-08T07:23:17.322Z,14.01
2023-04-08T07:24:17.369Z,14.11
2023-04-08T07:25:17.356Z,14.23
2023-04-08T07:26:17.369Z,14.30
2023-04-08T07:27:17.408Z,14.34
2023-04-08T07:28:17.395Z,14.40
2023-04-08T07:29:17.397Z,14.47
2023-04-08T07:30:17.407Z,14.54
2023-04-08T07:31:17.458Z,14.64
2023-04-08T07:32:17.426Z,14.66
2023-04-08T07:33:17.436Z,14.74
2023-04-08T07:34:17.454Z,14.61
2023-04-08T07:35:17.536Z,14.67
2023-04-08T07:36:17.576Z,14.48
2023-04-08T07:37:17.607Z,14.45
2023-04-08T07:38:17.645Z,14.39
2023-04-08T07:39:18.015Z,14.40
2023-04-08T07:40:17.741Z,14.26
2023-04-08T07:41:17.841Z,13.71
2023-04-08T07:42:17.863Z,13.74
2023-04-08T07:43:17.813Z,13.88
2023-04-08T07:44:17.853Z,14.02
2023-04-08T07:45:17.851Z,14.11
2023-04-08T07:46:17.887Z,14.19
2023-04-08T07:47:17.864Z,14.20
2023-04-08T07:48:17.926Z,14.32
2023-04-08T07:49:17.975Z,14.37
2023-04-08T07:50:17.978Z,14.48
2023-04-08T07:51:18.027Z,14.56
2023-04-08T07:52:18.029Z,14.61
2023-04-08T07:53:18.012Z,14.67
2023-04-08T07:54:18.015Z,14.74
2023-04-08T07:55:18.022Z,14.60
2023-04-08T07:56:17.986Z,14.33
2023-04-08T07:57:17.958Z,14.32
2023-04-08T07:58:17.986Z,14.19
2023-04-08T07:59:17.977Z,14.26
2023-04-08T08:00:17.954Z,13.84
2023-04-08T08:01:17.981Z,14.05
2023-04-08T08:02:18.074Z,14.24
2023-04-08T08:03:18.086Z,14.27
2023-04-08T08:04:18.225Z,14.41
2023-04-08T08:05:18.095Z,14.29
2023-04-08T08:06:17.988Z,14.26
2023-04-08T08:07:17.938Z,14.48
2023-04-08T08:08:17.926Z,14.58
2023-04-08T08:09:17.918Z,14.63
2023-04-08T08:10:17.950Z,14.68
2023-04-08T08:11:17.926Z,14.08
2023-04-08T08:12:17.926Z,14.33
2023-04-08T08:13:17.874Z,14.32
2023-04-08T08:14:17.868Z,14.51
2023-04-08T08:15:17.884Z,14.67
2023-04-08T08:16:17.939Z,14.72
2023-04-08T08:17:17.871Z,14.89
2023-04-08T08:18:17.887Z,15.00
2023-04-08T08:19:17.864Z,15.09
2023-04-08T08:20:17.906Z,14.92
2023-04-08T08:21:17.912Z,14.98
2023-04-08T08:22:17.949Z,15.13
2023-04-08T08:23:17.853Z,15.22
2023-04-08T08:24:17.849Z,15.22
2023-04-08T08:25:17.828Z,15.06
2023-04-08T08:26:17.869Z,15.15
2023-04-08T08:27:17.829Z,15.15
2023-04-08T08:28:17.843Z,15.27
2023-04-08T08:29:17.777Z,15.37
2023-04-08T08:30:17.800Z,15.46
2023-04-08T08:31:17.865Z,15.15
2023-04-08T08:32:17.794Z,14.54
2023-04-08T08:33:17.804Z,14.47
2023-04-08T08:34:17.766Z,14.70
2023-04-08T08:35:17.765Z,14.75
2023-04-08T08:36:17.821Z,14.70
2023-04-08T08:37:17.741Z,14.94
2023-04-08T08:38:17.813Z,15.07
2023-04-08T08:39:17.772Z,15.19
2023-04-08T08:40:17.814Z,15.30
2023-04-08T08:41:17.748Z,15.32
2023-04-08T08:42:25.340Z,14.74
2023-04-08T08:43:17.767Z,14.71
2023-04-08T08:44:17.762Z,14.85
2023-04-08T08:45:17.684Z,14.92
2023-04-08T08:46:17.783Z,15.07
2023-04-08T08:47:17.740Z,14.81
2023-04-08T08:48:17.679Z,14.99
2023-04-08T08:49:17.693Z,15.27
2023-04-08T08:50:17.704Z,15.46
2023-04-08T08:51:17.709Z,15.34
2023-04-08T08:52:17.662Z,15.46
2023-04-08T08:53:17.668Z,15.53
2023-04-08T08:54:17.661Z,15.40
2023-04-08T08:55:34.911Z,15.25
2023-04-08T08:56:19.097Z,15.30
2023-04-08T08:57:17.644Z,15.49
2023-04-08T08:58:17.624Z,15.72
2023-04-08T08:59:17.579Z,15.94
2023-04-08T09:00:17.632Z,15.89
2023-04-08T09:01:17.659Z,15.68
2023-04-08T09:02:17.738Z,15.92
2023-04-08T09:03:17.846Z,16.11
2023-04-08T09:04:17.627Z,15.71
2023-04-08T09:05:17.730Z,15.65
2023-04-08T09:06:17.571Z,16.02
2023-04-08T09:07:17.598Z,16.08
2023-04-08T09:08:17.542Z,16.05
2023-04-08T09:09:17.551Z,16.23
2023-04-08T09:10:17.558Z,16.20
2023-04-08T09:11:17.568Z,16.13
2023-04-08T09:12:18.220Z,16.13
2023-04-08T09:13:17.586Z,16.16
2023-04-08T09:14:17.687Z,16.13
2023-04-08T09:15:17.657Z,16.30
2023-04-08T09:16:17.968Z,16.40
2023-04-08T09:17:17.791Z,16.22
2023-04-08T09:18:17.897Z,16.41
2023-04-08T09:19:17.869Z,16.53
2023-04-08T09:20:17.875Z,16.49
2023-04-08T09:21:17.939Z,16.58
2023-04-08T09:22:17.999Z,16.72
2023-04-08T09:23:17.958Z,16.81
2023-04-08T09:24:18.058Z,16.84
2023-04-08T09:25:18.043Z,16.87
2023-04-08T09:26:18.070Z,16.88
2023-04-08T09:27:18.083Z,16.58
2023-04-08T09:28:18.073Z,16.51
2023-04-08T09:29:26.047Z,16.74
2023-04-08T09:31:37.785Z,16.82
2023-04-08T09:32:37.710Z,16.89
2023-04-08T09:33:37.685Z,16.94
2023-04-08T09:34:37.699Z,17.02
2023-04-08T09:35:37.794Z,17.12
2023-04-08T09:36:37.713Z,17.13
2023-04-08T09:37:37.644Z,17.25
2023-04-08T09:38:37.659Z,17.19
2023-04-08T09:39:37.680Z,17.08
2023-04-08T09:40:37.659Z,17.26
2023-04-08T09:41:37.920Z,17.36
2023-04-08T09:42:37.637Z,17.43
2023-04-08T09:43:37.639Z,17.30
2023-04-08T09:44:37.611Z,17.40
2023-04-08T09:45:37.660Z,17.37
2023-04-08T09:46:37.636Z,17.33
2023-04-08T09:47:37.675Z,17.19
2023-04-08T09:48:37.571Z,17.37
2023-04-08T09:49:37.563Z,17.27
2023-04-08T09:50:37.586Z,17.30
2023-04-08T09:51:37.606Z,17.33
2023-04-08T09:52:37.649Z,17.43
2023-04-08T09:53:37.561Z,17.40
2023-04-08T09:54:37.571Z,17.34
2023-04-08T09:55:37.572Z,17.41
2023-04-08T09:56:37.520Z,17.46
2023-04-08T09:57:37.601Z,17.58
2023-04-08T09:58:37.882Z,17.64
2023-04-08T09:59:37.544Z,17.64
2023-04-08T10:00:37.540Z,17.64
2023-04-08T10:01:37.550Z,17.67
2023-04-08T10:02:37.646Z,17.75
2023-04-08T10:03:37.625Z,17.82
2023-04-08T10:04:37.536Z,17.85
2023-04-08T10:05:37.509Z,17.85
2023-04-08T10:06:37.444Z,17.88
2023-04-08T10:07:37.496Z,17.71
2023-04-08T10:08:37.476Z,17.70
2023-04-08T10:09:37.470Z,17.80
2023-04-08T10:10:37.447Z,17.74
2023-04-08T10:11:37.460Z,17.71
2023-04-08T10:12:37.419Z,17.47
2023-04-08T10:13:37.457Z,17.56
2023-04-08T10:14:37.435Z,17.64
2023-04-08T10:15:37.434Z,17.77
2023-04-08T10:16:37.459Z,17.80
2023-04-08T10:17:37.467Z,17.74
2023-04-08T10:18:37.555Z,17.63
2023-04-08T10:19:37.548Z,17.50
2023-04-08T10:20:37.576Z,17.60
2023-04-08T10:21:37.705Z,17.41
2023-04-08T10:22:37.722Z,17.16
2023-04-08T10:23:37.670Z,17.08
2023-04-08T10:24:37.714Z,17.05
2023-04-08T10:25:37.761Z,17.18
2023-04-08T10:26:37.813Z,17.29
2023-04-08T10:27:37.788Z,17.36
2023-04-08T10:28:37.797Z,17.40
2023-04-08T10:29:37.858Z,17.44
2023-04-08T10:30:37.816Z,17.49
2023-04-08T10:31:37.981Z,17.51
2023-04-08T10:32:37.923Z,17.50
2023-04-08T10:33:40.771Z,17.50
2023-04-08T10:34:37.942Z,17.49
2023-04-08T10:35:37.975Z,17.53
2023-04-08T10:36:37.916Z,17.36
2023-04-08T10:37:37.919Z,17.11
2023-04-08T10:38:37.907Z,16.94
2023-04-08T10:39:38.813Z,16.79
2023-04-08T10:40:37.899Z,16.63
2023-04-08T10:41:37.873Z,16.66
2023-04-08T10:42:37.875Z,16.64
2023-04-08T10:43:37.872Z,16.53
2023-04-08T10:44:37.859Z,16.56
2023-04-08T10:45:37.934Z,16.44
2023-04-08T10:46:37.907Z,16.27
2023-04-08T10:47:37.963Z,16.47
2023-04-08T10:48:37.843Z,16.37
2023-04-08T10:49:37.830Z,16.43
2023-04-08T10:50:37.838Z,16.40
2023-04-08T10:51:37.801Z,16.08
2023-04-08T10:52:37.806Z,15.82
2023-04-08T10:53:37.809Z,15.82
2023-04-08T10:54:37.790Z,15.46
2023-04-08T10:55:37.852Z,15.10
2023-04-08T10:56:37.770Z,14.89
2023-04-08T10:57:37.791Z,14.85
2023-04-08T10:58:37.762Z,15.00
2023-04-08T10:59:37.784Z,15.05
2023-04-08T11:00:37.747Z,14.92
2023-04-08T11:01:37.894Z,14.88
2023-04-08T11:02:37.891Z,14.71
2023-04-08T11:03:38.072Z,14.23
2023-04-08T11:04:37.937Z,14.16
2023-04-08T11:05:38.047Z,13.90
2023-04-08T11:06:37.709Z,14.17
2023-04-08T11:07:37.753Z,14.16
2023-04-08T11:08:37.760Z,14.03
2023-04-08T11:09:37.729Z,14.17
2023-04-08T11:10:37.709Z,14.12
2023-04-08T11:11:37.705Z,13.95
2023-04-08T11:12:37.661Z,14.20
2023-04-08T11:13:37.643Z,14.60
2023-04-08T11:14:37.704Z,14.56
2023-04-08T11:15:37.757Z,14.89
2023-04-08T11:16:37.782Z,15.06
2023-04-08T11:17:37.865Z,15.25
2023-04-08T11:18:37.783Z,15.30
2023-04-08T11:19:37.801Z,15.36
2023-04-08T11:20:37.774Z,15.29
2023-04-08T11:21:37.851Z,15.32
2023-04-08T11:22:37.900Z,15.43
2023-04-08T11:23:37.872Z,15.65
2023-04-08T11:24:37.930Z,15.89
2023-04-08T11:25:37.955Z,16.11
2023-04-08T11:26:38.017Z,16.11
2023-04-08T11:27:38.037Z,15.72
2023-04-08T11:28:38.085Z,15.85
2023-04-08T11:29:38.113Z,15.77
2023-04-08T11:30:38.159Z,15.85
2023-04-08T11:31:38.248Z,15.82
2023-04-08T11:32:38.281Z,15.95
2023-04-08T11:33:38.249Z,15.94
2023-04-08T11:34:38.228Z,15.95
2023-04-08T11:35:38.330Z,16.24
2023-04-08T11:36:38.351Z,16.17
2023-04-08T11:37:38.351Z,16.44
2023-04-08T11:38:38.312Z,16.61
2023-04-08T11:39:38.378Z,16.36
2023-04-08T11:40:38.783Z,16.39
2023-04-08T11:41:38.391Z,16.43
2023-04-08T11:42:38.516Z,16.57
2023-04-08T11:43:38.508Z,16.75
2023-04-08T11:44:38.551Z,16.94
2023-04-08T11:45:38.547Z,17.06
2023-04-08T11:46:38.602Z,17.16
2023-04-08T11:47:38.706Z,17.27
2023-04-08T11:48:38.658Z,17.40
2023-04-08T11:49:38.925Z,17.49
2023-04-08T11:50:38.710Z,17.47
2023-04-08T11:51:39.889Z,17.43
2023-04-08T11:52:38.762Z,17.60
2023-04-08T11:53:38.767Z,17.68
2023-04-08T11:54:38.854Z,17.34
2023-04-08T11:55:38.869Z,17.27
2023-04-08T11:56:38.886Z,17.43
2023-04-08T11:57:38.918Z,17.43
2023-04-08T11:58:38.929Z,17.36
2023-04-08T11:59:38.873Z,17.56
2023-04-08T12:00:38.916Z,17.56
2023-04-08T12:01:39.020Z,17.56
2023-04-08T12:02:38.994Z,17.63
2023-04-08T12:03:39.231Z,17.51
2023-04-08T12:04:39.079Z,17.66
2023-04-08T12:05:39.090Z,17.60
2023-04-08T12:06:39.089Z,17.13
2023-04-08T12:07:39.173Z,16.57
2023-04-08T12:08:39.119Z,16.24
2023-04-08T12:09:39.109Z,16.17
2023-04-08T12:10:39.186Z,15.78
2023-04-08T12:11:39.225Z,15.57
2023-04-08T12:12:39.258Z,15.21
2023-04-08T12:13:39.292Z,15.06
2023-04-08T12:14:39.351Z,15.19
2023-04-08T12:15:39.359Z,15.32
2023-04-08T12:16:39.523Z,15.23
2023-04-08T12:17:39.504Z,15.46
2023-04-08T12:18:39.430Z,15.47
2023-04-08T12:19:39.491Z,15.00
2023-04-08T12:20:39.495Z,14.89
2023-04-08T12:21:39.604Z,14.70
2023-04-08T12:22:39.510Z,14.57
2023-04-08T12:23:39.534Z,14.99
2023-04-08T12:24:39.597Z,15.32
2023-04-08T12:25:39.606Z,15.58
2023-04-08T12:26:39.633Z,15.51
2023-04-08T12:27:39.681Z,15.80
2023-04-08T12:28:39.656Z,15.46
2023-04-08T12:29:39.628Z,15.22
2023-04-08T12:30:39.631Z,15.43
2023-04-08T12:31:39.605Z,15.34
2023-04-08T12:32:39.647Z,15.40
2023-04-08T12:33:39.572Z,15.46
2023-04-08T12:34:39.586Z,15.53
2023-04-08T12:35:39.642Z,15.64
2023-04-08T12:36:41.748Z,15.54
2023-04-08T12:37:39.550Z,15.26
2023-04-08T12:38:39.585Z,15.43
2023-04-08T12:39:39.537Z,15.22
2023-04-08T12:40:39.573Z,15.25
2023-04-08T12:41:39.635Z,15.18
2023-04-08T12:42:39.741Z,15.18
2023-04-08T12:43:39.704Z,15.41
2023-04-08T12:44:39.753Z,15.56
2023-04-08T12:45:39.816Z,15.67
2023-04-08T12:46:40.804Z,15.60
2023-04-08T12:47:39.909Z,15.72
2023-04-08T12:48:40.839Z,15.68
2023-04-08T12:49:48.809Z,15.74
2023-04-08T12:50:40.917Z,15.78
2023-04-08T12:51:39.904Z,15.67
2023-04-08T12:52:39.896Z,15.67
2023-04-08T12:53:39.911Z,15.68